sensor_id;sensor_type;location;lat;lon;timestamp;pressure;altitude;pressure_sealevel;temperature;humidity
59939;BME280;45801;51.810;19.444;2023-12-04T00:00:03;99537.36;;;-0.64;71.38
59939;BME280;45801;51.810;19.444;2023-12-04T00:02:30;99540.13;;;-0.66;71.13
59939;BME280;45801;51.810;19.444;2023-12-04T00:04:57;99537.92;;;-0.67;71.02
59939;BME280;45801;51.810;19.444;2023-12-04T00:07:23;99541.46;;;-0.70;71.10
59939;BME280;45801;51.810;19.444;2023-12-04T00:09:50;99542.81;;;-0.76;71.24
59939;BME280;45801;51.810;19.444;2023-12-04T00:12:16;99539.16;;;-0.73;71.27
59939;BME280;45801;51.810;19.444;2023-12-04T00:14:43;99537.31;;;-0.63;71.26
59939;BME280;45801;51.810;19.444;2023-12-04T00:17:10;99537.75;;;-0.57;70.83
59939;BME280;45801;51.810;19.444;2023-12-04T00:19:36;99540.74;;;-0.52;70.63
59939;BME280;45801;51.810;19.444;2023-12-04T00:22:03;99545.34;;;-0.48;70.35
59939;BME280;45801;51.810;19.444;2023-12-04T00:24:29;99548.50;;;-0.57;70.08
59939;BME280;45801;51.810;19.444;2023-12-04T00:26:56;99553.39;;;-0.52;70.17
59939;BME280;45801;51.810;19.444;2023-12-04T00:29:23;99556.08;;;-0.46;70.40
59939;BME280;45801;51.810;19.444;2023-12-04T00:31:49;99558.15;;;-0.51;69.68
59939;BME280;45801;51.810;19.444;2023-12-04T00:34:16;99562.02;;;-0.52;69.65
59939;BME280;45801;51.810;19.444;2023-12-04T00:36:42;99565.20;;;-0.48;70.06
59939;BME280;45801;51.810;19.444;2023-12-04T00:39:09;99566.28;;;-0.45;69.80
59939;BME280;45801;51.810;19.444;2023-12-04T00:41:36;99566.52;;;-0.39;69.90
59939;BME280;45801;51.810;19.444;2023-12-04T00:44:02;99567.72;;;-0.41;69.31
59939;BME280;45801;51.810;19.444;2023-12-04T00:46:29;99569.95;;;-0.43;69.10
59939;BME280;45801;51.810;19.444;2023-12-04T00:48:55;99571.15;;;-0.46;68.78
59939;BME280;45801;51.810;19.444;2023-12-04T00:51:22;99574.85;;;-0.61;68.73
59939;BME280;45801;51.810;19.444;2023-12-04T00:53:49;99576.14;;;-0.58;68.96
59939;BME280;45801;51.810;19.444;2023-12-04T00:56:15;99581.98;;;-0.50;69.47
59939;BME280;45801;51.810;19.444;2023-12-04T00:58:42;99585.16;;;-0.46;69.18
59939;BME280;45801;51.810;19.444;2023-12-04T01:01:09;99590.96;;;-0.41;68.61
59939;BME280;45801;51.810;19.444;2023-12-04T01:03:35;99593.92;;;-0.40;68.21
59939;BME280;45801;51.810;19.444;2023-12-04T01:06:02;99594.33;;;-0.32;69.18
59939;BME280;45801;51.810;19.444;2023-12-04T01:08:29;99596.01;;;-0.13;68.93
59939;BME280;45801;51.810;19.444;2023-12-04T01:10:56;99595.77;;;-0.07;67.85
59939;BME280;45801;51.810;19.444;2023-12-04T01:13:23;99601.05;;;-0.09;67.04
59939;BME280;45801;51.810;19.444;2023-12-04T01:15:50;99604.55;;;-0.20;66.61
59939;BME280;45801;51.810;19.444;2023-12-04T01:18:17;99601.23;;;-0.30;66.66
59939;BME280;45801;51.810;19.444;2023-12-04T01:20:44;99600.19;;;-0.36;66.76
59939;BME280;45801;51.810;19.444;2023-12-04T01:23:11;99605.45;;;-0.36;67.28
59939;BME280;45801;51.810;19.444;2023-12-04T01:25:37;99606.52;;;-0.43;67.17
59939;BME280;45801;51.810;19.444;2023-12-04T01:28:04;99605.18;;;-0.47;67.27
59939;BME280;45801;51.810;19.444;2023-12-04T01:30:30;99598.00;;;-0.48;67.15
59939;BME280;45801;51.810;19.444;2023-12-04T01:32:57;99598.61;;;-0.53;67.34
59939;BME280;45801;51.810;19.444;2023-12-04T01:35:24;99598.84;;;-0.56;67.61
59939;BME280;45801;51.810;19.444;2023-12-04T01:37:50;99602.38;;;-0.61;67.44
59939;BME280;45801;51.810;19.444;2023-12-04T01:40:17;99604.76;;;-0.61;67.68
59939;BME280;45801;51.810;19.444;2023-12-04T01:42:44;99602.41;;;-0.64;67.52
59939;BME280;45801;51.810;19.444;2023-12-04T01:45:10;99601.67;;;-0.63;67.86
59939;BME280;45801;51.810;19.444;2023-12-04T01:47:37;99601.30;;;-0.61;67.84
59939;BME280;45801;51.810;19.444;2023-12-04T01:50:06;99604.14;;;-0.60;67.58
59939;BME280;45801;51.810;19.444;2023-12-04T01:52:33;99604.88;;;-0.65;67.44
59939;BME280;45801;51.810;19.444;2023-12-04T01:55:00;99605.23;;;-0.71;67.42
59939;BME280;45801;51.810;19.444;2023-12-04T01:57:27;99605.43;;;-0.67;67.58
59939;BME280;45801;51.810;19.444;2023-12-04T01:59:53;99606.94;;;-0.82;67.61
59939;BME280;45801;51.810;19.444;2023-12-04T02:02:20;99606.58;;;-0.93;67.97
59939;BME280;45801;51.810;19.444;2023-12-04T02:04:47;99607.27;;;-1.04;68.39
59939;BME280;45801;51.810;19.444;2023-12-04T02:07:14;99610.52;;;-1.04;68.59
59939;BME280;45801;51.810;19.444;2023-12-04T02:09:40;99610.70;;;-1.08;68.46
59939;BME280;45801;51.810;19.444;2023-12-04T02:12:07;99610.79;;;-1.14;68.68
59939;BME280;45801;51.810;19.444;2023-12-04T02:14:34;99610.30;;;-1.21;68.74
59939;BME280;45801;51.810;19.444;2023-12-04T02:17:01;99608.58;;;-1.23;68.73
59939;BME280;45801;51.810;19.444;2023-12-04T02:19:28;99609.46;;;-1.26;68.89
59939;BME280;45801;51.810;19.444;2023-12-04T02:21:55;99607.91;;;-1.30;69.05
59939;BME280;45801;51.810;19.444;2023-12-04T02:24:22;99610.02;;;-1.33;69.02
59939;BME280;45801;51.810;19.444;2023-12-04T02:26:53;99613.03;;;-1.32;69.15
59939;BME280;45801;51.810;19.444;2023-12-04T02:29:33;99612.80;;;-1.38;69.18
59939;BME280;45801;51.810;19.444;2023-12-04T02:32:02;99611.38;;;-1.44;69.42
59939;BME280;45801;51.810;19.444;2023-12-04T02:34:33;99610.50;;;-1.45;69.31
59939;BME280;45801;51.810;19.444;2023-12-04T02:37:01;99599.49;;;-1.32;69.22
59939;BME280;45801;51.810;19.444;2023-12-04T02:39:29;99591.55;;;-1.23;68.89
59939;BME280;45801;51.810;19.444;2023-12-04T02:41:55;99591.27;;;-1.25;68.67
59939;BME280;45801;51.810;19.444;2023-12-04T02:44:22;99594.48;;;-1.19;68.82
59939;BME280;45801;51.810;19.444;2023-12-04T02:46:48;99600.38;;;-1.12;68.62
59939;BME280;45801;51.810;19.444;2023-12-04T02:49:15;99602.92;;;-1.28;68.82
59939;BME280;45801;51.810;19.444;2023-12-04T02:51:42;99607.36;;;-1.41;69.17
59939;BME280;45801;51.810;19.444;2023-12-04T02:54:18;99607.12;;;-1.40;69.35
59939;BME280;45801;51.810;19.444;2023-12-04T02:56:50;99614.44;;;-1.41;69.32
59939;BME280;45801;51.810;19.444;2023-12-04T02:59:16;99615.23;;;-1.54;69.58
59939;BME280;45801;51.810;19.444;2023-12-04T03:01:43;99609.71;;;-1.42;69.34
59939;BME280;45801;51.810;19.444;2023-12-04T03:04:10;99619.39;;;-1.43;69.09
59939;BME280;45801;51.810;19.444;2023-12-04T03:06:36;99626.41;;;-1.49;69.11
59939;BME280;45801;51.810;19.444;2023-12-04T03:09:03;99628.63;;;-1.60;69.37
59939;BME280;45801;51.810;19.444;2023-12-04T03:11:31;99631.17;;;-1.62;69.64
59939;BME280;45801;51.810;19.444;2023-12-04T03:13:59;99630.59;;;-1.57;69.58
59939;BME280;45801;51.810;19.444;2023-12-04T03:16:26;99625.43;;;-1.57;69.55
59939;BME280;45801;51.810;19.444;2023-12-04T03:18:53;99629.34;;;-1.59;69.55
59939;BME280;45801;51.810;19.444;2023-12-04T03:21:19;99634.36;;;-1.64;69.89
59939;BME280;45801;51.810;19.444;2023-12-04T03:23:46;99636.48;;;-1.65;70.05
59939;BME280;45801;51.810;19.444;2023-12-04T03:26:13;99636.49;;;-1.62;69.68
59939;BME280;45801;51.810;19.444;2023-12-04T03:28:39;99633.73;;;-1.58;69.70
59939;BME280;45801;51.810;19.444;2023-12-04T03:31:09;99632.57;;;-1.51;69.82
59939;BME280;45801;51.810;19.444;2023-12-04T03:33:36;99633.30;;;-1.39;69.46
59939;BME280;45801;51.810;19.444;2023-12-04T03:36:03;99634.03;;;-1.28;69.11
59939;BME280;45801;51.810;19.444;2023-12-04T03:38:33;99635.27;;;-1.28;68.98
59939;BME280;45801;51.810;19.444;2023-12-04T03:41:00;99638.29;;;-1.32;69.08
59939;BME280;45801;51.810;19.444;2023-12-04T03:43:26;99638.47;;;-1.32;69.18
59939;BME280;45801;51.810;19.444;2023-12-04T03:45:53;99637.79;;;-1.27;69.10
59939;BME280;45801;51.810;19.444;2023-12-04T03:48:20;99636.70;;;-1.26;69.06
59939;BME280;45801;51.810;19.444;2023-12-04T03:50:47;99638.35;;;-1.23;68.88
59939;BME280;45801;51.810;19.444;2023-12-04T03:53:13;99638.09;;;-1.27;68.86
59939;BME280;45801;51.810;19.444;2023-12-04T03:55:40;99637.49;;;-1.19;68.75
59939;BME280;45801;51.810;19.444;2023-12-04T03:58:06;99641.70;;;-1.22;68.79
59939;BME280;45801;51.810;19.444;2023-12-04T04:00:33;99643.73;;;-1.17;68.77
59939;BME280;45801;51.810;19.444;2023-12-04T04:03:00;99645.25;;;-1.17;68.83
59939;BME280;45801;51.810;19.444;2023-12-04T04:05:26;99646.55;;;-1.17;68.79
59939;BME280;45801;51.810;19.444;2023-12-04T04:07:53;99641.57;;;-1.14;68.86
59939;BME280;45801;51.810;19.444;2023-12-04T04:10:20;99643.69;;;-1.15;68.92
59939;BME280;45801;51.810;19.444;2023-12-04T04:12:46;99643.86;;;-1.19;68.87
59939;BME280;45801;51.810;19.444;2023-12-04T04:15:13;99644.59;;;-1.18;68.99
59939;BME280;45801;51.810;19.444;2023-12-04T04:17:40;99644.27;;;-1.18;69.06
59939;BME280;45801;51.810;19.444;2023-12-04T04:20:07;99641.90;;;-1.12;69.12
59939;BME280;45801;51.810;19.444;2023-12-04T04:22:39;99641.96;;;-1.13;69.01
59939;BME280;45801;51.810;19.444;2023-12-04T04:25:07;99642.94;;;-1.27;69.17
59939;BME280;45801;51.810;19.444;2023-12-04T04:27:34;99639.64;;;-1.23;69.27
59939;BME280;45801;51.810;19.444;2023-12-04T04:30:01;99638.19;;;-1.17;69.10
59939;BME280;45801;51.810;19.444;2023-12-04T04:32:28;99637.10;;;-1.19;68.78
59939;BME280;45801;51.810;19.444;2023-12-04T04:34:55;99634.17;;;-1.27;69.05
59939;BME280;45801;51.810;19.444;2023-12-04T04:37:22;99636.00;;;-1.22;69.26
59939;BME280;45801;51.810;19.444;2023-12-04T04:39:48;99635.75;;;-1.21;69.19
59939;BME280;45801;51.810;19.444;2023-12-04T04:42:15;99635.14;;;-1.22;69.21
59939;BME280;45801;51.810;19.444;2023-12-04T04:44:41;99632.11;;;-1.16;69.19
59939;BME280;45801;51.810;19.444;2023-12-04T04:47:08;99628.39;;;-1.08;69.29
59939;BME280;45801;51.810;19.444;2023-12-04T04:49:35;99632.13;;;-1.03;69.10
59939;BME280;45801;51.810;19.444;2023-12-04T04:52:01;99632.70;;;-1.19;69.13
59939;BME280;45801;51.810;19.444;2023-12-04T04:54:31;99633.75;;;-1.29;69.33
59939;BME280;45801;51.810;19.444;2023-12-04T04:56:57;99636.21;;;-1.34;69.67
59939;BME280;45801;51.810;19.444;2023-12-04T04:59:24;99633.78;;;-1.34;69.64
59939;BME280;45801;51.810;19.444;2023-12-04T05:01:51;99627.13;;;-1.30;69.53
59939;BME280;45801;51.810;19.444;2023-12-04T05:04:17;99625.29;;;-1.28;69.51
59939;BME280;45801;51.810;19.444;2023-12-04T05:06:44;99625.13;;;-1.26;69.50
59939;BME280;45801;51.810;19.444;2023-12-04T05:09:10;99624.21;;;-1.30;69.50
59939;BME280;45801;51.810;19.444;2023-12-04T05:11:37;99628.67;;;-1.41;69.86
59939;BME280;45801;51.810;19.444;2023-12-04T05:14:03;99633.39;;;-1.37;69.85
59939;BME280;45801;51.810;19.444;2023-12-04T05:16:30;99633.59;;;-1.28;69.75
59939;BME280;45801;51.810;19.444;2023-12-04T05:18:57;99637.26;;;-1.18;69.52
59939;BME280;45801;51.810;19.444;2023-12-04T05:21:23;99637.06;;;-1.11;69.26
59939;BME280;45801;51.810;19.444;2023-12-04T05:23:50;99633.22;;;-1.12;69.32
59939;BME280;45801;51.810;19.444;2023-12-04T05:26:17;99635.56;;;-1.05;69.30
59939;BME280;45801;51.810;19.444;2023-12-04T05:28:44;99630.26;;;-1.05;69.03
59939;BME280;45801;51.810;19.444;2023-12-04T05:31:11;99633.27;;;-1.07;68.99
59939;BME280;45801;51.810;19.444;2023-12-04T05:33:37;99637.79;;;-1.00;69.09
59939;BME280;45801;51.810;19.444;2023-12-04T05:36:04;99632.99;;;-0.92;68.78
59939;BME280;45801;51.810;19.444;2023-12-04T05:38:33;99630.47;;;-0.84;68.71
59939;BME280;45801;51.810;19.444;2023-12-04T05:41:00;99632.33;;;-0.77;68.68
59939;BME280;45801;51.810;19.444;2023-12-04T05:43:27;99633.92;;;-0.75;68.45
59939;BME280;45801;51.810;19.444;2023-12-04T05:45:54;99634.64;;;-0.74;68.20
59939;BME280;45801;51.810;19.444;2023-12-04T05:48:27;99638.44;;;-0.74;68.17
59939;BME280;45801;51.810;19.444;2023-12-04T05:50:53;99643.04;;;-0.75;68.23
59939;BME280;45801;51.810;19.444;2023-12-04T05:53:20;99643.70;;;-0.84;68.28
59939;BME280;45801;51.810;19.444;2023-12-04T05:55:53;99645.48;;;-0.87;68.25
59939;BME280;45801;51.810;19.444;2023-12-04T05:58:19;99643.73;;;-0.89;68.18
59939;BME280;45801;51.810;19.444;2023-12-04T06:00:46;99646.38;;;-0.94;68.27
59939;BME280;45801;51.810;19.444;2023-12-04T06:03:12;99642.21;;;-0.91;68.61
59939;BME280;45801;51.810;19.444;2023-12-04T06:05:39;99637.91;;;-0.85;68.38
59939;BME280;45801;51.810;19.444;2023-12-04T06:08:06;99637.36;;;-0.80;68.38
59939;BME280;45801;51.810;19.444;2023-12-04T06:10:33;99637.13;;;-0.74;68.13
59939;BME280;45801;51.810;19.444;2023-12-04T06:13:02;99633.37;;;-0.72;67.78
59939;BME280;45801;51.810;19.444;2023-12-04T06:15:29;99633.64;;;-0.74;68.12
59939;BME280;45801;51.810;19.444;2023-12-04T06:17:56;99631.99;;;-0.73;68.11
59939;BME280;45801;51.810;19.444;2023-12-04T06:20:22;99634.80;;;-0.67;68.17
59939;BME280;45801;51.810;19.444;2023-12-04T06:22:49;99635.67;;;-0.63;67.96
59939;BME280;45801;51.810;19.444;2023-12-04T06:25:16;99635.97;;;-0.62;67.83
59939;BME280;45801;51.810;19.444;2023-12-04T06:27:43;99634.66;;;-0.54;68.13
59939;BME280;45801;51.810;19.444;2023-12-04T06:30:10;99642.05;;;-0.50;67.68
59939;BME280;45801;51.810;19.444;2023-12-04T06:32:37;99645.15;;;-0.48;67.53
59939;BME280;45801;51.810;19.444;2023-12-04T06:35:05;99647.55;;;-0.45;67.70
59939;BME280;45801;51.810;19.444;2023-12-04T06:37:32;99647.40;;;-0.47;67.05
59939;BME280;45801;51.810;19.444;2023-12-04T06:40:00;99646.46;;;-0.47;67.30
59939;BME280;45801;51.810;19.444;2023-12-04T06:42:30;99645.10;;;-0.60;66.98
59939;BME280;45801;51.810;19.444;2023-12-04T06:44:57;99645.14;;;-0.61;67.37
59939;BME280;45801;51.810;19.444;2023-12-04T06:47:24;99643.52;;;-0.57;67.56
59939;BME280;45801;51.810;19.444;2023-12-04T06:49:50;99646.50;;;-0.54;67.37
59939;BME280;45801;51.810;19.444;2023-12-04T06:52:17;99646.62;;;-0.53;67.14
59939;BME280;45801;51.810;19.444;2023-12-04T06:54:44;99649.18;;;-0.57;67.21
59939;BME280;45801;51.810;19.444;2023-12-04T06:57:10;99648.99;;;-0.57;66.99
59939;BME280;45801;51.810;19.444;2023-12-04T06:59:37;99649.86;;;-0.59;67.11
59939;BME280;45801;51.810;19.444;2023-12-04T07:02:03;99648.95;;;-0.59;67.05
59939;BME280;45801;51.810;19.444;2023-12-04T07:04:31;99648.83;;;-0.73;67.30
59939;BME280;45801;51.810;19.444;2023-12-04T07:06:58;99648.65;;;-0.72;67.41
59939;BME280;45801;51.810;19.444;2023-12-04T07:09:34;99651.41;;;-0.79;67.45
59939;BME280;45801;51.810;19.444;2023-12-04T07:12:01;99650.75;;;-0.73;67.67
59939;BME280;45801;51.810;19.444;2023-12-04T07:14:29;99653.48;;;-0.66;67.68
59939;BME280;45801;51.810;19.444;2023-12-04T07:16:55;99655.27;;;-0.60;67.56
59939;BME280;45801;51.810;19.444;2023-12-04T07:19:22;99651.02;;;-0.56;67.64
59939;BME280;45801;51.810;19.444;2023-12-04T07:21:48;99650.55;;;-0.48;67.54
59939;BME280;45801;51.810;19.444;2023-12-04T07:24:16;99648.55;;;-0.43;67.17
59939;BME280;45801;51.810;19.444;2023-12-04T07:26:42;99649.75;;;-0.40;67.06
59939;BME280;45801;51.810;19.444;2023-12-04T07:29:09;99653.86;;;-0.32;67.24
59939;BME280;45801;51.810;19.444;2023-12-04T07:31:37;99656.06;;;-0.29;66.75
59939;BME280;45801;51.810;19.444;2023-12-04T07:34:04;99652.28;;;-0.32;66.73
59939;BME280;45801;51.810;19.444;2023-12-04T07:36:30;99652.70;;;-0.32;66.89
59939;BME280;45801;51.810;19.444;2023-12-04T07:38:57;99649.48;;;-0.31;66.83
59939;BME280;45801;51.810;19.444;2023-12-04T07:41:24;99647.22;;;-0.26;67.13
59939;BME280;45801;51.810;19.444;2023-12-04T07:43:50;99650.81;;;-0.21;67.01
59939;BME280;45801;51.810;19.444;2023-12-04T07:46:17;99649.60;;;-0.15;66.99
59939;BME280;45801;51.810;19.444;2023-12-04T07:48:44;99649.27;;;-0.13;66.36
59939;BME280;45801;51.810;19.444;2023-12-04T07:51:11;99646.94;;;-0.10;66.29
59939;BME280;45801;51.810;19.444;2023-12-04T07:53:38;99649.15;;;-0.14;66.04
59939;BME280;45801;51.810;19.444;2023-12-04T07:56:05;99648.91;;;-0.09;66.58
59939;BME280;45801;51.810;19.444;2023-12-04T07:58:32;99648.03;;;-0.13;65.97
59939;BME280;45801;51.810;19.444;2023-12-04T08:00:59;99643.05;;;-0.17;66.00
59939;BME280;45801;51.810;19.444;2023-12-04T08:03:26;99643.12;;;-0.14;66.53
59939;BME280;45801;51.810;19.444;2023-12-04T08:05:53;99641.91;;;-0.20;65.93
59939;BME280;45801;51.810;19.444;2023-12-04T08:08:20;99645.81;;;-0.26;65.98
59939;BME280;45801;51.810;19.444;2023-12-04T08:10:47;99646.38;;;-0.22;66.41
59939;BME280;45801;51.810;19.444;2023-12-04T08:13:14;99652.49;;;-0.27;66.07
59939;BME280;45801;51.810;19.444;2023-12-04T08:15:41;99657.46;;;-0.29;65.77
59939;BME280;45801;51.810;19.444;2023-12-04T08:18:08;99663.02;;;-0.32;65.86
59939;BME280;45801;51.810;19.444;2023-12-04T08:20:34;99663.39;;;-0.35;66.13
59939;BME280;45801;51.810;19.444;2023-12-04T08:23:01;99661.65;;;-0.33;66.49
59939;BME280;45801;51.810;19.444;2023-12-04T08:25:28;99668.20;;;-0.35;66.34
59939;BME280;45801;51.810;19.444;2023-12-04T08:27:55;99672.94;;;-0.31;66.40
59939;BME280;45801;51.810;19.444;2023-12-04T08:30:21;99670.56;;;-0.25;66.29
59939;BME280;45801;51.810;19.444;2023-12-04T08:32:48;99670.19;;;-0.23;66.19
59939;BME280;45801;51.810;19.444;2023-12-04T08:35:15;99674.67;;;-0.31;65.81
59939;BME280;45801;51.810;19.444;2023-12-04T08:37:41;99679.59;;;-0.31;65.49
59939;BME280;45801;51.810;19.444;2023-12-04T08:40:08;99678.64;;;-0.34;65.50
59939;BME280;45801;51.810;19.444;2023-12-04T08:42:35;99676.34;;;-0.37;65.78
59939;BME280;45801;51.810;19.444;2023-12-04T08:45:02;99676.53;;;-0.40;65.67
59939;BME280;45801;51.810;19.444;2023-12-04T08:47:32;99677.71;;;-0.49;65.46
59939;BME280;45801;51.810;19.444;2023-12-04T08:50:00;99684.44;;;-0.50;65.95
59939;BME280;45801;51.810;19.444;2023-12-04T08:52:27;99684.17;;;-0.43;66.05
59939;BME280;45801;51.810;19.444;2023-12-04T08:54:53;99684.84;;;-0.36;66.14
59939;BME280;45801;51.810;19.444;2023-12-04T08:57:20;99688.98;;;-0.28;66.15
59939;BME280;45801;51.810;19.444;2023-12-04T08:59:47;99693.64;;;0.04;66.59
59939;BME280;45801;51.810;19.444;2023-12-04T09:02:13;99687.40;;;0.28;65.30
59939;BME280;45801;51.810;19.444;2023-12-04T09:04:40;99683.23;;;0.33;64.95
59939;BME280;45801;51.810;19.444;2023-12-04T09:07:07;99681.33;;;0.31;63.88
59939;BME280;45801;51.810;19.444;2023-12-04T09:09:33;99687.33;;;0.33;64.63
59939;BME280;45801;51.810;19.444;2023-12-04T09:12:01;99684.67;;;0.36;64.39
59939;BME280;45801;51.810;19.444;2023-12-04T09:14:27;99684.38;;;0.36;64.35
59939;BME280;45801;51.810;19.444;2023-12-04T09:16:54;99687.13;;;0.34;64.17
59939;BME280;45801;51.810;19.444;2023-12-04T09:19:21;99688.30;;;0.26;63.67
59939;BME280;45801;51.810;19.444;2023-12-04T09:21:47;99683.70;;;0.27;64.51
59939;BME280;45801;51.810;19.444;2023-12-04T09:24:14;99680.72;;;0.30;64.63
59939;BME280;45801;51.810;19.444;2023-12-04T09:26:41;99685.36;;;0.32;63.96
59939;BME280;45801;51.810;19.444;2023-12-04T09:29:07;99686.68;;;0.41;64.10
59939;BME280;45801;51.810;19.444;2023-12-04T09:31:35;99685.50;;;0.57;63.70
59939;BME280;45801;51.810;19.444;2023-12-04T09:34:01;99684.52;;;0.48;62.63
59939;BME280;45801;51.810;19.444;2023-12-04T09:36:28;99681.23;;;0.40;62.82
59939;BME280;45801;51.810;19.444;2023-12-04T09:38:56;99678.82;;;0.30;62.62
59939;BME280;45801;51.810;19.444;2023-12-04T09:41:22;99679.80;;;0.20;63.15
59939;BME280;45801;51.810;19.444;2023-12-04T09:43:49;99679.56;;;0.08;62.98
59939;BME280;45801;51.810;19.444;2023-12-04T09:46:17;99678.78;;;0.11;63.78
59939;BME280;45801;51.810;19.444;2023-12-04T09:48:44;99674.56;;;0.17;63.79
59939;BME280;45801;51.810;19.444;2023-12-04T09:51:11;99675.05;;;0.26;64.24
59939;BME280;45801;51.810;19.444;2023-12-04T09:53:39;99671.52;;;0.27;63.05
59939;BME280;45801;51.810;19.444;2023-12-04T09:56:07;99668.85;;;0.34;63.08
59939;BME280;45801;51.810;19.444;2023-12-04T09:58:39;99667.60;;;0.32;62.96
59939;BME280;45801;51.810;19.444;2023-12-04T10:01:06;99669.83;;;0.20;62.98
59939;BME280;45801;51.810;19.444;2023-12-04T10:03:35;99665.23;;;0.26;64.01
59939;BME280;45801;51.810;19.444;2023-12-04T10:06:02;99662.39;;;0.33;63.86
59939;BME280;45801;51.810;19.444;2023-12-04T10:08:30;99660.23;;;0.25;63.29
59939;BME280;45801;51.810;19.444;2023-12-04T10:10:57;99667.63;;;0.15;63.16
59939;BME280;45801;51.810;19.444;2023-12-04T10:13:26;99667.60;;;0.17;63.36
59939;BME280;45801;51.810;19.444;2023-12-04T10:15:53;99669.88;;;0.19;63.53
59939;BME280;45801;51.810;19.444;2023-12-04T10:18:27;99664.98;;;0.26;63.92
59939;BME280;45801;51.810;19.444;2023-12-04T10:20:56;99660.77;;;0.28;63.26
59939;BME280;45801;51.810;19.444;2023-12-04T10:23:39;99656.04;;;0.26;63.26
59939;BME280;45801;51.810;19.444;2023-12-04T10:26:07;99661.23;;;0.18;63.31
59939;BME280;45801;51.810;19.444;2023-12-04T10:28:37;99654.15;;;0.22;63.20
59939;BME280;45801;51.810;19.444;2023-12-04T10:31:03;99652.98;;;0.15;63.04
59939;BME280;45801;51.810;19.444;2023-12-04T10:33:33;99654.81;;;0.18;63.38
59939;BME280;45801;51.810;19.444;2023-12-04T10:36:00;99651.31;;;0.27;63.81
59939;BME280;45801;51.810;19.444;2023-12-04T10:38:26;99647.53;;;0.27;63.27
59939;BME280;45801;51.810;19.444;2023-12-04T10:40:53;99643.98;;;0.36;63.47
59939;BME280;45801;51.810;19.444;2023-12-04T10:43:22;99643.37;;;0.32;62.86
59939;BME280;45801;51.810;19.444;2023-12-04T10:45:49;99643.82;;;0.30;62.73
59939;BME280;45801;51.810;19.444;2023-12-04T10:48:18;99646.58;;;0.34;63.13
59939;BME280;45801;51.810;19.444;2023-12-04T10:50:49;99647.23;;;0.35;62.91
59939;BME280;45801;51.810;19.444;2023-12-04T10:53:16;99646.86;;;0.39;63.33
59939;BME280;45801;51.810;19.444;2023-12-04T10:55:44;99644.13;;;0.35;62.96
59939;BME280;45801;51.810;19.444;2023-12-04T10:58:12;99637.73;;;0.44;63.13
59939;BME280;45801;51.810;19.444;2023-12-04T11:00:45;99631.27;;;0.54;63.35
59939;BME280;45801;51.810;19.444;2023-12-04T11:03:21;99629.77;;;0.54;62.73
59939;BME280;45801;51.810;19.444;2023-12-04T11:05:55;99630.02;;;0.53;62.75
59939;BME280;45801;51.810;19.444;2023-12-04T11:08:22;99632.81;;;0.53;62.65
59939;BME280;45801;51.810;19.444;2023-12-04T11:11:02;99632.16;;;0.50;62.21
59939;BME280;45801;51.810;19.444;2023-12-04T11:13:30;99631.96;;;0.42;62.32
59939;BME280;45801;51.810;19.444;2023-12-04T11:16:01;99629.65;;;0.37;62.61
59939;BME280;45801;51.810;19.444;2023-12-04T11:18:31;99629.88;;;0.38;62.93
59939;BME280;45801;51.810;19.444;2023-12-04T11:21:18;99633.28;;;0.45;63.13
59939;BME280;45801;51.810;19.444;2023-12-04T11:23:47;99631.00;;;0.50;63.00
59939;BME280;45801;51.810;19.444;2023-12-04T11:26:14;99626.06;;;0.51;62.55
59939;BME280;45801;51.810;19.444;2023-12-04T11:28:42;99629.38;;;0.49;62.48
59939;BME280;45801;51.810;19.444;2023-12-04T11:31:10;99635.89;;;0.45;62.29
59939;BME280;45801;51.810;19.444;2023-12-04T11:33:37;99630.98;;;0.40;62.67
59939;BME280;45801;51.810;19.444;2023-12-04T11:36:13;99621.55;;;0.43;62.99
59939;BME280;45801;51.810;19.444;2023-12-04T11:38:45;99613.86;;;0.46;63.16
59939;BME280;45801;51.810;19.444;2023-12-04T11:43:45;99617.77;;;0.47;62.47
59939;BME280;45801;51.810;19.444;2023-12-04T11:46:12;99613.39;;;0.48;62.90
59939;BME280;45801;51.810;19.444;2023-12-04T11:48:40;99608.05;;;0.52;62.91
59939;BME280;45801;51.810;19.444;2023-12-04T11:51:07;99610.00;;;0.55;62.83
59939;BME280;45801;51.810;19.444;2023-12-04T11:53:40;99609.19;;;0.57;62.84
59939;BME280;45801;51.810;19.444;2023-12-04T11:56:10;99602.70;;;0.60;62.87
59939;BME280;45801;51.810;19.444;2023-12-04T11:58:42;99600.37;;;0.59;62.40
59939;BME280;45801;51.810;19.444;2023-12-04T12:01:09;99591.88;;;0.62;62.73
59939;BME280;45801;51.810;19.444;2023-12-04T12:03:37;99589.29;;;0.70;63.08
59939;BME280;45801;51.810;19.444;2023-12-04T12:06:04;99586.68;;;0.94;63.04
59939;BME280;45801;51.810;19.444;2023-12-04T12:08:31;99586.05;;;1.13;62.44
59939;BME280;45801;51.810;19.444;2023-12-04T12:10:58;99580.33;;;1.20;62.59
59939;BME280;45801;51.810;19.444;2023-12-04T12:13:25;99578.84;;;1.23;62.51
59939;BME280;45801;51.810;19.444;2023-12-04T12:15:52;99580.30;;;1.26;62.45
59939;BME280;45801;51.810;19.444;2023-12-04T12:18:21;99581.61;;;1.31;61.98
59939;BME280;45801;51.810;19.444;2023-12-04T12:20:49;99579.61;;;1.26;60.66
59939;BME280;45801;51.810;19.444;2023-12-04T12:23:16;99574.06;;;1.22;61.04
59939;BME280;45801;51.810;19.444;2023-12-04T12:25:43;99575.80;;;1.16;60.84
59939;BME280;45801;51.810;19.444;2023-12-04T12:28:10;99570.80;;;1.16;61.37
59939;BME280;45801;51.810;19.444;2023-12-04T12:30:36;99570.05;;;1.13;61.04
59939;BME280;45801;51.810;19.444;2023-12-04T12:33:03;99568.14;;;0.89;60.01
59939;BME280;45801;51.810;19.444;2023-12-04T12:35:30;99568.63;;;0.86;61.50
59939;BME280;45801;51.810;19.444;2023-12-04T12:37:57;99565.69;;;0.74;60.74
59939;BME280;45801;51.810;19.444;2023-12-04T12:40:27;99560.78;;;0.67;61.34
59939;BME280;45801;51.810;19.444;2023-12-04T12:43:03;99560.36;;;0.70;61.59
59939;BME280;45801;51.810;19.444;2023-12-04T12:45:38;99561.52;;;0.72;61.82
59939;BME280;45801;51.810;19.444;2023-12-04T12:48:05;99560.72;;;0.78;62.00
59939;BME280;45801;51.810;19.444;2023-12-04T12:50:32;99556.11;;;0.87;61.93
59939;BME280;45801;51.810;19.444;2023-12-04T12:53:01;99554.33;;;0.88;61.12
59939;BME280;45801;51.810;19.444;2023-12-04T12:55:28;99552.23;;;0.84;61.10